Time;durP1;ratioP1;P1;durP2;ratioP2;P2;SDS_P1;SDS_P2;PMS_P1;PMS_P2;Temp;Humidity;BMP_temperature;BMP_pressure;BME280_temperature;BME280_humidity;BME280_pressure;Samples;Min_cycle;Max_cycle;Signal;HPM_P1;HPM_P2
2021/01/25 00:00:55;;;;;;;;;;;;;;;;;;5089190;28;19929;-87
2021/01/25 00:03:21;;;;;;;;;;;;;;;;;;5086950;28;19963;-86
2021/01/25 00:05:48;;;;;;;;;;;;;;;;;;5087122;28;19928;-87
2021/01/25 00:08:14;;;;;;;;;;;;;;;;;;5089958;28;19925;-86
2021/01/25 00:10:40;;;;;;;;;;;;;;;;;;5086814;28;19932;-86
2021/01/25 00:13:07;;;;;;;;;;;;;;;;;;5085414;28;20052;-86
2021/01/25 00:15:33;;;;;;;;;;;;;;;;;;5085999;28;19925;-86
2021/01/25 00:18:00;;;;;;;;;;;;;;;;;;5085521;28;20310;-87
2021/01/25 00:20:26;;;;;;;;;;;;;;;;;;5084252;28;19925;-85
2021/01/25 00:22:52;;;;;;;;;;;;;;;;;;5086352;28;19947;-85
2021/01/25 00:25:19;;;;;;;;;;;;;;;;;;5085053;28;19925;-86
2021/01/25 00:27:45;;;;;;;;;;;;;;;;;;5085914;28;19924;-87
2021/01/25 00:30:11;;;;;;;;;;;;;;;;;;5085052;28;19924;-87
2021/01/25 00:32:38;;;;;;;;;;;;;;;;;;5085217;28;19981;-86
2021/01/25 00:35:04;;;;;;;;;;;;;;;;;;5085313;28;19924;-87
2021/01/25 00:37:31;;;;;;;;;;;;;;;;;;5087546;28;19929;-86
2021/01/25 00:39:57;;;;;;;;;;;;;;;;;;5086592;28;19928;-86
2021/01/25 00:42:23;;;;;;;;;;;;;;;;;;5085185;28;19924;-86
2021/01/25 00:44:50;;;;;;;;;;;;;;;;;;5085873;28;20369;-86
2021/01/25 00:47:16;;;;;;;;;;;;;;;;;;5086537;28;19931;-87
2021/01/25 00:49:42;;;;;;;;;;;;;;;;;;5085912;28;19925;-87
2021/01/25 00:52:09;;;;;;;;;;;;;;;;;;5086423;28;19924;-86
2021/01/25 00:54:35;;;;;;;;;;;;;;;;;;5085616;28;19924;-86
2021/01/25 00:57:02;;;;;;;;;;;;;;;;;;5087826;28;19924;-87
2021/01/25 00:59:28;;;;;;;;;;;;;;;;;;5088544;28;19970;-86
2021/01/25 01:01:54;;;;;;;;;;;;;;;;;;5086611;28;19925;-85
2021/01/25 01:04:21;;;;;;;;;;;;;;;;;;5086879;28;19924;-86
2021/01/25 01:06:47;;;;;;;;;;;;;;;;;;5086555;28;19928;-86
2021/01/25 01:09:13;;;;;;;;;;;;;;;;;;5076867;28;19924;-86
2021/01/25 01:11:40;;;;;;;;;;;;;;;;;;5083208;28;19931;-86
2021/01/25 01:14:06;;;;;;;;;;;;;;;;;;5083226;28;19932;-86
2021/01/25 01:16:32;;;;;;;;;;;;;;;;;;5090483;28;19908;-85
2021/01/25 01:18:59;;;;;;;;;;;;;;;;;;5081464;28;19924;-86
2021/01/25 01:21:25;;;;;;;;;;;;;;;;;;5081760;28;19932;-87
2021/01/25 01:23:52;;;;;;;;;;;;;;;;;;5080802;28;19924;-86
2021/01/25 01:26:18;;;;;;;;;;;;;;;;;;5081258;28;19928;-86
2021/01/25 01:28:44;;;;;;;;;;;;;;;;;;5071492;28;19932;-87
2021/01/25 01:31:11;;;;;;;;;;;;;;;;;;5081232;28;19924;-86
2021/01/25 01:33:37;;;;;;;;;;;;;;;;;;5082073;28;19929;-86
2021/01/25 01:36:03;;;;;;;;;;;;;;;;;;5082675;28;19931;-85
2021/01/25 01:38:30;;;;;;;;;;;;;;;;;;5083177;28;19931;-85
2021/01/25 01:40:56;;;;;;;;;;;;;;;;;;5084015;28;19932;-86
2021/01/25 01:43:23;;;;;;;;;;;;;;;;;;5084400;28;19954;-85
2021/01/25 01:45:49;;;;;;;;;;;;;;;;;;5088753;28;19932;-85
2021/01/25 01:48:15;;;;;;;;;;;;;;;;;;5083388;28;19936;-86
2021/01/25 01:50:42;;;;;;;;;;;;;;;;;;5082445;28;19970;-85
2021/01/25 01:53:08;;;;;;;;;;;;;;;;;;5080884;28;20435;-86
2021/01/25 01:55:34;;;;;;;;;;;;;;;;;;5081733;28;19924;-86
2021/01/25 01:58:01;;;;;;;;;;;;;;;;;;5082448;28;19932;-85
2021/01/25 02:00:27;;;;;;;;;;;;;;;;;;5081398;28;19928;-85
2021/01/25 02:02:53;;;;;;;;;;;;;;;;;;5081299;28;19925;-85
2021/01/25 02:05:20;;;;;;;;;;;;;;;;;;5081507;28;19925;-84
2021/01/25 02:07:46;;;;;;;;;;;;;;;;;;5080206;28;19924;-85
2021/01/25 02:10:13;;;;;;;;;;;;;;;;;;5077447;28;19931;-86
2021/01/25 02:12:39;;;;;;;;;;;;;;;;;;5080804;28;20285;-85
2021/01/25 02:15:05;;;;;;;;;;;;;;;;;;5080773;28;19925;-86
2021/01/25 02:17:32;;;;;;;;;;;;;;;;;;5079726;28;19931;-86
2021/01/25 02:19:58;;;;;;;;;;;;;;;;;;5080316;28;19924;-85
2021/01/25 02:22:25;;;;;;;;;;;;;;;;;;5077964;28;19924;-84
2021/01/25 02:24:51;;;;;;;;;;;;;;;;;;5059094;28;19929;-85
2021/01/25 02:27:17;;;;;;;;;;;;;;;;;;5064836;28;19928;-85
2021/01/25 02:29:44;;;;;;;;;;;;;;;;;;5078561;28;19925;-85
2021/01/25 02:32:10;;;;;;;;;;;;;;;;;;5078770;28;19931;-84
2021/01/25 02:34:36;;;;;;;;;;;;;;;;;;5078865;28;19924;-86
2021/01/25 02:37:03;;;;;;;;;;;;;;;;;;5079159;28;20262;-85
2021/01/25 02:39:29;;;;;;;;;;;;;;;;;;5078367;28;19924;-86
2021/01/25 02:41:56;;;;;;;;;;;;;;;;;;5078112;28;19932;-86
2021/01/25 02:44:22;;;;;;;;;;;;;;;;;;5079081;28;19947;-86
2021/01/25 02:46:48;;;;;;;;;;;;;;;;;;5080662;28;19924;-85
2021/01/25 02:49:15;;;;;;;;;;;;;;;;;;5079843;28;19925;-84
2021/01/25 02:51:41;;;;;;;;;;;;;;;;;;5078741;28;19932;-85
2021/01/25 02:54:07;;;;;;;;;;;;;;;;;;5079162;28;19974;-85
2021/01/25 02:56:34;;;;;;;;;;;;;;;;;;5079285;28;19924;-85
2021/01/25 02:59:00;;;;;;;;;;;;;;;;;;5101314;22;19932;-83
2021/01/25 03:01:27;;;;;;;;;;;;;;;;;;5024990;28;19936;-84
2021/01/25 03:03:53;;;;;;;;;;;;;;;;;;5027757;28;19932;-83
2021/01/25 03:06:20;;;;;;;;;;;;;;;;;;5025996;28;19972;-84
2021/01/25 03:08:46;;;;;;;;;;;;;;;;;;5034808;28;20343;-84
2021/01/25 03:11:13;;;;;;;;;;;;;;;;;;5024487;28;19973;-83
2021/01/25 03:13:40;;;;;;;;;;;;;;;;;;5016439;28;19930;-82
2021/01/25 03:16:12;;;;;;;;;;;;;;;;;;5020442;28;19929;-84
2021/01/25 03:18:39;;;;;;;;;;;;;;;;;;5030040;28;19996;-84
2021/01/25 03:21:05;;;;;;;;;;;;;;;;;;5029542;28;19916;-82
2021/01/25 03:23:32;;;;;;;;;;;;;;;;;;5057815;28;19921;-82
2021/01/25 03:25:58;;;;;;;;;;;;;;;;;;5046183;28;19971;-83
2021/01/25 03:28:24;;;;;;;;;;;;;;;;;;5018350;28;19935;-83
2021/01/25 03:30:51;;;;;;;;;;;;;;;;;;5030366;28;19925;-83
2021/01/25 03:33:17;;;;;;;;;;;;;;;;;;5037571;28;19925;-83
2021/01/25 03:35:44;;;;;;;;;;;;;;;;;;5030109;28;19972;-84
2021/01/25 03:38:10;;;;;;;;;;;;;;;;;;5031056;28;19925;-84
2021/01/25 03:40:36;;;;;;;;;;;;;;;;;;5031039;28;19960;-83
2021/01/25 03:43:03;;;;;;;;;;;;;;;;;;5023812;28;19973;-83
2021/01/25 03:45:29;;;;;;;;;;;;;;;;;;5018795;28;20001;-83
2021/01/25 03:47:55;;;;;;;;;;;;;;;;;;5021364;28;20318;-83
2021/01/25 03:50:22;;;;;;;;;;;;;;;;;;5021502;28;19955;-83
2021/01/25 03:52:48;;;;;;;;;;;;;;;;;;5042275;28;19941;-83
2021/01/25 03:55:14;;;;;;;;;;;;;;;;;;5017887;28;19966;-83
2021/01/25 03:57:41;;;;;;;;;;;;;;;;;;5017444;28;20305;-83
2021/01/25 04:00:07;;;;;;;;;;;;;;;;;;5026588;28;19962;-83
2021/01/25 04:02:34;;;;;;;;;;;;;;;;;;5018410;28;19966;-84
2021/01/25 04:05:00;;;;;;;;;;;;;;;;;;5031976;28;19942;-84
2021/01/25 04:07:26;;;;;;;;;;;;;;;;;;5028402;28;19969;-83
2021/01/25 04:09:53;;;;;;;;;;;;;;;;;;5048868;28;19932;-83
2021/01/25 04:12:19;;;;;;;;;;;;;;;;;;5031988;28;20314;-83
2021/01/25 04:14:45;;;;;;;;;;;;;;;;;;5032744;28;19937;-83
2021/01/25 04:17:12;;;;;;;;;;;;;;;;;;5030656;28;19934;-83
2021/01/25 04:19:38;;;;;;;;;;;;;;;;;;5038875;28;19970;-83
2021/01/25 04:22:05;;;;;;;;;;;;;;;;;;5021301;28;19959;-82
2021/01/25 04:24:31;;;;;;;;;;;;;;;;;;5052223;28;19933;-83
2021/01/25 04:26:57;;;;;;;;;;;;;;;;;;5050060;28;19974;-84
2021/01/25 04:29:24;;;;;;;;;;;;;;;;;;5030021;28;19963;-83
2021/01/25 04:31:50;;;;;;;;;;;;;;;;;;5022929;28;19938;-83
2021/01/25 04:34:16;;;;;;;;;;;;;;;;;;5031232;28;19942;-84
2021/01/25 04:36:43;;;;;;;;;;;;;;;;;;5020419;28;20028;-84
2021/01/25 04:39:09;;;;;;;;;;;;;;;;;;5033847;28;19961;-83
2021/01/25 04:41:36;;;;;;;;;;;;;;;;;;5036681;28;19945;-82
2021/01/25 04:44:02;;;;;;;;;;;;;;;;;;5037289;28;19941;-82
2021/01/25 04:46:28;;;;;;;;;;;;;;;;;;5030145;28;20299;-83
2021/01/25 04:48:55;;;;;;;;;;;;;;;;;;5024110;28;19970;-83
2021/01/25 04:51:21;;;;;;;;;;;;;;;;;;5034913;28;19997;-83
2021/01/25 04:53:47;;;;;;;;;;;;;;;;;;5036136;28;19973;-83
2021/01/25 04:56:14;;;;;;;;;;;;;;;;;;5033295;28;19992;-83
2021/01/25 04:58:40;;;;;;;;;;;;;;;;;;5025929;28;19962;-84
2021/01/25 05:01:06;;;;;;;;;;;;;;;;;;5029898;28;19977;-83
2021/01/25 05:03:33;;;;;;;;;;;;;;;;;;5028368;28;19963;-83
2021/01/25 05:05:59;;;;;;;;;;;;;;;;;;5026642;28;19963;-83
2021/01/25 05:08:25;;;;;;;;;;;;;;;;;;5028826;28;19955;-83
2021/01/25 05:10:52;;;;;;;;;;;;;;;;;;5032949;28;19970;-83
2021/01/25 05:13:18;;;;;;;;;;;;;;;;;;5028673;28;20016;-83
2021/01/25 05:15:45;;;;;;;;;;;;;;;;;;5026539;28;19956;-83
2021/01/25 05:18:12;;;;;;;;;;;;;;;;;;5016968;28;19991;-83
2021/01/25 05:20:39;;;;;;;;;;;;;;;;;;5016912;28;20004;-83
2021/01/25 05:23:05;;;;;;;;;;;;;;;;;;5024171;28;20410;-83
2021/01/25 05:25:33;;;;;;;;;;;;;;;;;;5028188;28;19992;-83
2021/01/25 05:27:59;;;;;;;;;;;;;;;;;;5031352;28;19982;-83
2021/01/25 05:30:25;;;;;;;;;;;;;;;;;;5022093;28;19963;-83
2021/01/25 05:32:52;;;;;;;;;;;;;;;;;;5023969;28;19987;-83
2021/01/25 05:35:18;;;;;;;;;;;;;;;;;;5016894;28;19937;-82
2021/01/25 05:37:45;;;;;;;;;;;;;;;;;;5016408;28;19941;-82
2021/01/25 05:40:11;;;;;;;;;;;;;;;;;;5027778;28;19956;-83
2021/01/25 05:42:37;;;;;;;;;;;;;;;;;;5033401;28;20362;-83
2021/01/25 05:45:04;;;;;;;;;;;;;;;;;;5025642;28;19939;-83
2021/01/25 05:47:30;;;;;;;;;;;;;;;;;;5015815;28;19937;-83
2021/01/25 05:49:56;;;;;;;;;;;;;;;;;;5027571;28;19960;-83
2021/01/25 05:52:23;;;;;;;;;;;;;;;;;;5036174;28;19939;-83
2021/01/25 05:54:49;;;;;;;;;;;;;;;;;;5031981;28;19931;-82
2021/01/25 05:57:17;;;;;;;;;;;;;;;;;;5022655;28;20389;-83
2021/01/25 05:59:45;;;;;;;;;;;;;;;;;;5019958;28;20423;-82
2021/01/25 06:02:11;;;;;;;;;;;;;;;;;;5030908;28;19921;-83
2021/01/25 06:04:38;;;;;;;;;;;;;;;;;;5036063;28;19920;-83
2021/01/25 06:07:04;;;;;;;;;;;;;;;;;;5023221;28;19922;-82
2021/01/25 06:09:30;;;;;;;;;;;;;;;;;;5024103;28;20294;-82
2021/01/25 06:11:57;;;;;;;;;;;;;;;;;;5036788;28;19944;-82
2021/01/25 06:14:23;;;;;;;;;;;;;;;;;;5038727;28;19921;-82
2021/01/25 06:16:49;;;;;;;;;;;;;;;;;;5038399;28;19986;-82
2021/01/25 06:19:16;;;;;;;;;;;;;;;;;;5017368;28;19921;-82
2021/01/25 06:21:42;;;;;;;;;;;;;;;;;;5022108;28;19977;-82
2021/01/25 06:24:08;;;;;;;;;;;;;;;;;;5015670;28;19925;-82
2021/01/25 06:26:35;;;;;;;;;;;;;;;;;;5025184;28;19921;-81
2021/01/25 06:29:02;;;;;;;;;;;;;;;;;;5023361;28;20400;-82
2021/01/25 06:31:28;;;;;;;;;;;;;;;;;;5015735;28;20413;-83
2021/01/25 06:33:54;;;;;;;;;;;;;;;;;;5016858;28;19944;-82
2021/01/25 06:36:21;;;;;;;;;;;;;;;;;;5029137;28;19968;-82
2021/01/25 06:38:47;;;;;;;;;;;;;;;;;;5016902;28;19929;-82
2021/01/25 06:41:13;;;;;;;;;;;;;;;;;;5026825;28;20011;-82
2021/01/25 06:43:40;;;;;;;;;;;;;;;;;;5022671;28;19929;-82
2021/01/25 06:46:06;;;;;;;;;;;;;;;;;;5025006;28;20035;-82
2021/01/25 06:48:34;;;;;;;;;;;;;;;;;;5024743;28;19979;-81
2021/01/25 06:51:00;;;;;;;;;;;;;;;;;;5027165;28;20024;-82
2021/01/25 06:53:26;;;;;;;;;;;;;;;;;;5017716;28;19929;-83
2021/01/25 06:55:53;;;;;;;;;;;;;;;;;;5025692;28;19921;-83
2021/01/25 06:58:19;;;;;;;;;;;;;;;;;;5041027;28;20289;-83
2021/01/25 07:00:46;;;;;;;;;;;;;;;;;;5031473;28;19921;-83
2021/01/25 07:03:12;;;;;;;;;;;;;;;;;;5031365;28;19928;-83
2021/01/25 07:05:38;;;;;;;;;;;;;;;;;;5031229;28;19928;-83
2021/01/25 07:08:05;;;;;;;;;;;;;;;;;;5038436;28;20332;-80
2021/01/25 07:10:31;;;;;;;;;;;;;;;;;;5036948;28;19921;-82
2021/01/25 07:12:57;;;;;;;;;;;;;;;;;;5031050;28;19921;-82
2021/01/25 07:15:24;;;;;;;;;;;;;;;;;;5033531;28;19971;-83
2021/01/25 07:17:50;;;;;;;;;;;;;;;;;;5040595;28;19925;-81
2021/01/25 07:20:17;;;;;;;;;;;;;;;;;;5024877;28;19925;-81
2021/01/25 07:22:43;;;;;;;;;;;;;;;;;;5024329;28;19921;-80
2021/01/25 07:25:09;;;;;;;;;;;;;;;;;;5022759;28;19925;-82
2021/01/25 07:27:36;;;;;;;;;;;;;;;;;;5026219;28;19956;-82
2021/01/25 07:30:02;;;;;;;;;;;;;;;;;;5031904;28;20381;-82
2021/01/25 07:32:29;;;;;;;;;;;;;;;;;;5022749;28;19925;-81
2021/01/25 07:34:55;;;;;;;;;;;;;;;;;;5017695;28;19921;-82
2021/01/25 07:37:21;;;;;;;;;;;;;;;;;;5020496;28;19925;-82
2021/01/25 07:39:48;;;;;;;;;;;;;;;;;;5021112;28;19940;-83
2021/01/25 07:42:14;;;;;;;;;;;;;;;;;;5019481;28;19944;-83
2021/01/25 07:44:40;;;;;;;;;;;;;;;;;;5023376;28;20009;-84
2021/01/25 07:47:07;;;;;;;;;;;;;;;;;;5020772;28;20342;-83
2021/01/25 07:49:33;;;;;;;;;;;;;;;;;;5021803;28;19987;-83
2021/01/25 07:51:59;;;;;;;;;;;;;;;;;;5023866;28;20032;-83
2021/01/25 07:54:27;;;;;;;;;;;;;;;;;;5034607;28;19954;-82
2021/01/25 07:56:59;;;;;;;;;;;;;;;;;;5031991;28;19947;-83
2021/01/25 08:04:55;;;;;;;;;;;;;;;;;;4977788;28;20189;-82
2021/01/25 08:12:57;;;;;;;;;;;;;;;;;;4866383;29;25063;-82
2021/01/25 08:15:24;;;;;;;;;;;;;;;;;;4879458;29;20235;-82
2021/01/25 08:17:50;;;;;;;;;;;;;;;;;;4888236;29;20190;-82
2021/01/25 08:20:17;;;;;;;;;;;;;;;;;;4894466;29;20225;-83
2021/01/25 08:22:43;;;;;;;;;;;;;;;;;;4896153;29;25145;-82
2021/01/25 08:25:09;;;;;;;;;;;;;;;;;;4900483;29;20238;-83
2021/01/25 08:27:36;;;;;;;;;;;;;;;;;;4886630;29;25082;-83
2021/01/25 08:41:08;;;;;;;;;;;;;;;;;;4903123;29;20506;-79
2021/01/25 08:43:34;;;;;;;;;;;;;;;;;;4961800;28;20398;-80
2021/01/25 08:46:01;;;;;;;;;;;;;;;;;;4956847;28;20402;-79
2021/01/25 08:48:27;;;;;;;;;;;;;;;;;;4957438;28;20399;-83
2021/01/25 08:50:53;;;;;;;;;;;;;;;;;;4957927;28;20433;-83
2021/01/25 08:53:20;;;;;;;;;;;;;;;;;;4976479;28;20415;-83
2021/01/25 08:55:47;;;;;;;;;;;;;;;;;;4975095;28;20409;-83
2021/01/25 08:58:13;;;;;;;;;;;;;;;;;;4968293;28;20394;-83
2021/01/25 09:00:42;;;;;;;;;;;;;;;;;;4972634;28;20459;-84
2021/01/25 09:03:09;;;;;;;;;;;;;;;;;;5056599;23;20412;-84
2021/01/25 09:05:35;;;;;;;;;;;;;;;;;;5068505;28;20431;-83
2021/01/25 09:08:01;;;;;;;;;;;;;;;;;;5078997;28;20388;-84
2021/01/25 09:10:28;;;;;;;;;;;;;;;;;;5084096;28;20762;-83
2021/01/25 09:12:54;;;;;;;;;;;;;;;;;;5075485;28;20409;-84
2021/01/25 09:15:20;;;;;;;;;;;;;;;;;;5065533;28;20388;-84
2021/01/25 09:17:47;;;;;;;;;;;;;;;;;;5076656;28;20379;-83
2021/01/25 09:20:14;;;;;;;;;;;;;;;;;;5067472;28;20448;-84
2021/01/25 09:22:40;;;;;;;;;;;;;;;;;;5073620;28;20394;-84
2021/01/25 09:25:06;;;;;;;;;;;;;;;;;;5083328;28;20386;-84
2021/01/25 09:27:33;;;;;;;;;;;;;;;;;;5075463;28;20388;-84
2021/01/25 09:29:59;;;;;;;;;;;;;;;;;;5070555;28;20413;-85
2021/01/25 09:32:25;;;;;;;;;;;;;;;;;;5063956;28;20400;-85
2021/01/25 09:34:54;;;;;;;;;;;;;;;;;;5068103;28;20767;-84
2021/01/25 09:37:20;;;;;;;;;;;;;;;;;;5087276;28;20339;-85
2021/01/25 09:39:47;;;;;;;;;;;;;;;;;;5088721;28;26062;-82
2021/01/25 09:42:13;;;;;;;;;;;;;;;;;;5064914;28;21555;-85
2021/01/25 09:44:39;;;;;;;;;;;;;;;;;;5071832;28;20389;-85
2021/01/25 09:47:06;;;;;;;;;;;;;;;;;;5062787;28;19959;-85
2021/01/25 09:49:32;;;;;;;;;;;;;;;;;;5062315;28;20079;-85
2021/01/25 09:51:58;;;;;;;;;;;;;;;;;;5061703;28;19978;-84
2021/01/25 09:54:25;;;;;;;;;;;;;;;;;;5079236;28;19947;-84
2021/01/25 09:56:51;;;;;;;;;;;;;;;;;;5080103;28;21230;-84
2021/01/25 09:59:18;;;;;;;;;;;;;;;;;;5082194;28;21545;-84
2021/01/25 10:01:44;;;;;;;;;;;;;;;;;;5073905;28;20001;-84
2021/01/25 10:04:11;;;;;;;;;;;;;;;;;;5064790;28;22084;-84
2021/01/25 10:06:37;;;;;;;;;;;;;;;;;;5079281;28;25049;-83
2021/01/25 10:09:03;;;;;;;;;;;;;;;;;;5081539;28;20091;-85
2021/01/25 10:11:30;;;;;;;;;;;;;;;;;;5070544;28;20313;-84
2021/01/25 10:13:56;;;;;;;;;;;;;;;;;;5079910;28;20772;-84
2021/01/25 10:16:23;;;;;;;;;;;;;;;;;;5076201;28;20395;-86
2021/01/25 10:18:49;;;;;;;;;;;;;;;;;;5082116;28;20388;-86
2021/01/25 10:21:25;;;;;;;;;;;;;;;;;;5081371;28;20382;-86
2021/01/25 10:23:51;;;;;;;;;;;;;;;;;;5064342;28;20389;-87
2021/01/25 10:26:18;;;;;;;;;;;;;;;;;;5081434;28;20377;-86
2021/01/25 10:28:44;;;;;;;;;;;;;;;;;;5082241;28;20400;-86
2021/01/25 10:31:11;;;;;;;;;;;;;;;;;;5071235;28;20363;-85
2021/01/25 10:33:38;;;;;;;;;;;;;;;;;;5075653;28;20478;-84
2021/01/25 10:36:04;;;;;;;;;;;;;;;;;;5076880;28;20391;-85
2021/01/25 10:38:30;;;;;;;;;;;;;;;;;;5082103;28;20399;-85
2021/01/25 10:40:59;;;;;;;;;;;;;;;;;;5080776;28;20785;-84
2021/01/25 10:43:26;;;;;;;;;;;;;;;;;;5072239;28;20811;-85
2021/01/25 10:45:52;;;;;;;;;;;;;;;;;;5071550;28;20423;-86
2021/01/25 10:48:19;;;;;;;;;;;;;;;;;;5086081;28;20753;-85
2021/01/25 10:50:45;;;;;;;;;;;;;;;;;;5086726;28;20393;-85
2021/01/25 10:53:12;;;;;;;;;;;;;;;;;;5074215;28;25380;-85
2021/01/25 10:55:38;;;;;;;;;;;;;;;;;;5083754;28;20472;-86
2021/01/25 10:58:04;;;;;;;;;;;;;;;;;;5079522;28;20594;-86
2021/01/25 11:00:31;;;;;;;;;;;;;;;;;;5084305;28;19974;-86
2021/01/25 11:02:57;;;;;;;;;;;;;;;;;;5074365;28;19921;-84
2021/01/25 11:05:25;;;;;;;;;;;;;;;;;;5076531;28;20035;-86
2021/01/25 11:07:51;;;;;;;;;;;;;;;;;;5084490;28;20357;-85
2021/01/25 11:10:19;;;;;;;;;;;;;;;;;;5071184;28;19943;-85
2021/01/25 11:12:45;;;;;;;;;;;;;;;;;;5060691;28;20236;-85
2021/01/25 11:15:12;;;;;;;;;;;;;;;;;;5080523;28;20395;-85
2021/01/25 11:17:38;;;;;;;;;;;;;;;;;;5082330;28;19924;-85
2021/01/25 11:20:05;;;;;;;;;;;;;;;;;;5081728;28;19958;-85
2021/01/25 11:22:31;;;;;;;;;;;;;;;;;;5081621;28;20032;-85
2021/01/25 11:24:58;;;;;;;;;;;;;;;;;;5075630;28;19921;-85
2021/01/25 11:27:24;;;;;;;;;;;;;;;;;;5063150;28;20119;-85
2021/01/25 11:29:50;;;;;;;;;;;;;;;;;;5068218;28;19951;-85
2021/01/25 11:32:17;;;;;;;;;;;;;;;;;;5084404;28;19960;-85
2021/01/25 11:34:43;;;;;;;;;;;;;;;;;;5084913;28;19959;-85
2021/01/25 11:37:09;;;;;;;;;;;;;;;;;;5075814;28;21941;-85
2021/01/25 11:39:36;;;;;;;;;;;;;;;;;;5067069;28;20268;-85
2021/01/25 11:42:02;;;;;;;;;;;;;;;;;;5078132;28;20093;-85
2021/01/25 11:44:29;;;;;;;;;;;;;;;;;;5079376;28;19963;-85
2021/01/25 11:46:56;;;;;;;;;;;;;;;;;;5073397;28;19920;-85
2021/01/25 11:49:22;;;;;;;;;;;;;;;;;;5081867;28;19963;-84
2021/01/25 11:51:49;;;;;;;;;;;;;;;;;;5084659;28;19928;-85
2021/01/25 11:54:15;;;;;;;;;;;;;;;;;;5080489;28;19931;-85
2021/01/25 11:56:45;;;;;;;;;;;;;;;;;;5086417;28;19935;-85
2021/01/25 11:59:11;;;;;;;;;;;;;;;;;;5071182;28;19981;-85
2021/01/25 12:01:38;;;;;;;;;;;;;;;;;;5081246;28;19924;-85
2021/01/25 12:04:04;;;;;;;;;;;;;;;;;;5078799;28;19924;-85
2021/01/25 12:06:31;;;;;;;;;;;;;;;;;;5069612;28;19921;-85
2021/01/25 12:08:57;;;;;;;;;;;;;;;;;;5081612;28;20287;-85
2021/01/25 12:11:24;;;;;;;;;;;;;;;;;;5072524;28;20825;-85
2021/01/25 12:13:51;;;;;;;;;;;;;;;;;;5065672;28;20403;-84
2021/01/25 12:16:17;;;;;;;;;;;;;;;;;;5081026;28;20065;-85
2021/01/25 12:18:44;;;;;;;;;;;;;;;;;;5076187;28;19973;-85
2021/01/25 12:21:10;;;;;;;;;;;;;;;;;;5064563;28;20185;-85
2021/01/25 12:23:36;;;;;;;;;;;;;;;;;;5074099;28;20089;-84
2021/01/25 12:26:03;;;;;;;;;;;;;;;;;;5073090;28;19924;-85
2021/01/25 12:28:30;;;;;;;;;;;;;;;;;;5074230;28;19966;-85
2021/01/25 12:30:56;;;;;;;;;;;;;;;;;;5068744;28;22256;-85
2021/01/25 12:33:22;;;;;;;;;;;;;;;;;;5072512;28;19927;-85
2021/01/25 12:35:49;;;;;;;;;;;;;;;;;;5074644;28;19974;-84
2021/01/25 12:38:15;;;;;;;;;;;;;;;;;;5065577;28;26073;-86
2021/01/25 12:40:42;;;;;;;;;;;;;;;;;;5064847;28;23890;-86
2021/01/25 12:43:08;;;;;;;;;;;;;;;;;;5068875;28;23471;-85
2021/01/25 12:45:34;;;;;;;;;;;;;;;;;;5070347;28;20640;-87
2021/01/25 12:48:01;;;;;;;;;;;;;;;;;;5070731;28;20422;-86
2021/01/25 12:50:28;;;;;;;;;;;;;;;;;;5068317;28;20749;-86
2021/01/25 12:52:54;;;;;;;;;;;;;;;;;;5077969;28;27072;-86
2021/01/25 12:55:21;;;;;;;;;;;;;;;;;;5085097;28;22694;-87
2021/01/25 12:57:47;;;;;;;;;;;;;;;;;;5075333;28;21221;-85
2021/01/25 13:00:14;;;;;;;;;;;;;;;;;;5068704;28;26708;-85
2021/01/25 13:02:40;;;;;;;;;;;;;;;;;;5070185;28;20923;-84
2021/01/25 13:05:07;;;;;;;;;;;;;;;;;;5066169;28;21676;-84
2021/01/25 13:07:33;;;;;;;;;;;;;;;;;;5071460;28;26090;-83
2021/01/25 13:09:59;;;;;;;;;;;;;;;;;;5065156;28;19947;-82
2021/01/25 13:12:26;;;;;;;;;;;;;;;;;;5074568;28;19955;-84
2021/01/25 13:14:52;;;;;;;;;;;;;;;;;;5087053;28;19962;-83
2021/01/25 13:17:18;;;;;;;;;;;;;;;;;;5073981;28;20090;-84
2021/01/25 13:19:46;;;;;;;;;;;;;;;;;;5072065;28;20294;-83
2021/01/25 13:22:12;;;;;;;;;;;;;;;;;;5061443;28;20772;-83
2021/01/25 13:24:39;;;;;;;;;;;;;;;;;;5069714;28;20387;-84
2021/01/25 13:27:05;;;;;;;;;;;;;;;;;;5078841;28;20427;-83
2021/01/25 13:29:32;;;;;;;;;;;;;;;;;;5062080;28;20915;-84
2021/01/25 13:31:58;;;;;;;;;;;;;;;;;;5071409;28;20535;-84
2021/01/25 13:34:24;;;;;;;;;;;;;;;;;;5058438;28;20507;-85
2021/01/25 13:36:51;;;;;;;;;;;;;;;;;;5073023;28;20383;-84
2021/01/25 13:39:17;;;;;;;;;;;;;;;;;;5076681;28;20266;-82
2021/01/25 13:41:44;;;;;;;;;;;;;;;;;;5067428;28;20198;-82
2021/01/25 13:44:10;;;;;;;;;;;;;;;;;;5072396;28;19946;-83
2021/01/25 13:46:37;;;;;;;;;;;;;;;;;;5070307;28;19966;-85
2021/01/25 13:49:03;;;;;;;;;;;;;;;;;;5073091;28;19975;-85
2021/01/25 13:51:29;;;;;;;;;;;;;;;;;;5076389;28;19921;-84
2021/01/25 13:53:56;;;;;;;;;;;;;;;;;;5071759;28;19975;-84
2021/01/25 13:56:23;;;;;;;;;;;;;;;;;;5068132;28;20003;-85
2021/01/25 13:58:49;;;;;;;;;;;;;;;;;;5069890;28;19920;-85
2021/01/25 14:01:15;;;;;;;;;;;;;;;;;;5074614;28;21579;-85
2021/01/25 14:03:42;;;;;;;;;;;;;;;;;;5082782;28;26057;-84
2021/01/25 14:06:09;;;;;;;;;;;;;;;;;;5079125;28;19928;-84
2021/01/25 14:08:35;;;;;;;;;;;;;;;;;;5075155;28;20333;-87
2021/01/25 14:11:02;;;;;;;;;;;;;;;;;;5071319;28;20637;-85
2021/01/25 14:13:28;;;;;;;;;;;;;;;;;;5073510;28;20301;-81
2021/01/25 14:15:56;;;;;;;;;;;;;;;;;;5060199;28;19924;-85
2021/01/25 14:18:23;;;;;;;;;;;;;;;;;;5066672;28;20003;-85
2021/01/25 14:20:50;;;;;;;;;;;;;;;;;;5069893;28;20284;-85
2021/01/25 14:23:16;;;;;;;;;;;;;;;;;;5062832;28;19963;-86
2021/01/25 14:25:42;;;;;;;;;;;;;;;;;;5076988;28;19952;-86
2021/01/25 14:28:09;;;;;;;;;;;;;;;;;;5073566;28;19924;-85
2021/01/25 14:30:36;;;;;;;;;;;;;;;;;;5063235;28;19920;-85
2021/01/25 14:33:03;;;;;;;;;;;;;;;;;;5063665;28;20080;-86
2021/01/25 14:35:30;;;;;;;;;;;;;;;;;;5078334;28;20123;-86
2021/01/25 14:37:56;;;;;;;;;;;;;;;;;;5079141;28;19924;-86
2021/01/25 14:40:25;;;;;;;;;;;;;;;;;;5058593;28;19955;-86
2021/01/25 14:42:51;;;;;;;;;;;;;;;;;;5080884;28;19925;-85
2021/01/25 14:45:17;;;;;;;;;;;;;;;;;;5076262;28;20152;-85
2021/01/25 14:47:44;;;;;;;;;;;;;;;;;;5072616;28;20271;-85
2021/01/25 14:50:10;;;;;;;;;;;;;;;;;;5066550;28;20292;-85
2021/01/25 14:52:38;;;;;;;;;;;;;;;;;;5069471;28;28073;-86
2021/01/25 14:55:04;;;;;;;;;;;;;;;;;;5073056;28;21539;-86
2021/01/25 14:57:30;;;;;;;;;;;;;;;;;;5060985;28;20548;-85
2021/01/25 14:59:57;;;;;;;;;;;;;;;;;;5068491;28;19927;-89
2021/01/25 15:02:23;;;;;;;;;;;;;;;;;;5068818;28;19921;-86
2021/01/25 15:04:50;;;;;;;;;;;;;;;;;;5058544;28;19924;-85
2021/01/25 15:42:52;;;;;;;;;;;;;;;;;;4997896;28;20846;-86
2021/01/25 15:53:28;;;;;;;;;;;;;;;;;;5014635;28;19920;-85
2021/01/25 15:58:38;;;;;;;;;;;;;;;;;;4997394;28;19960;-86
2021/01/25 16:01:06;;;;;;;;;;;;;;;;;;5017137;28;23858;-84
2021/01/25 16:03:32;;;;;;;;;;;;;;;;;;5013657;28;19930;-85
2021/01/25 16:06:00;;;;;;;;;;;;;;;;;;5002972;28;19926;-85
2021/01/25 16:08:27;;;;;;;;;;;;;;;;;;5016860;28;19922;-85
2021/01/25 16:10:53;;;;;;;;;;;;;;;;;;5005016;28;20149;-86
2021/01/25 16:13:19;;;;;;;;;;;;;;;;;;5015998;28;19922;-85
2021/01/25 16:15:46;;;;;;;;;;;;;;;;;;5004057;28;21213;-84
2021/01/25 16:18:12;;;;;;;;;;;;;;;;;;5014303;28;19929;-87
2021/01/25 16:20:39;;;;;;;;;;;;;;;;;;5009211;28;19921;-88
2021/01/25 16:23:05;;;;;;;;;;;;;;;;;;5012630;28;20363;-83
2021/01/25 16:25:32;;;;;;;;;;;;;;;;;;5053409;28;26081;-83
2021/01/25 16:28:00;;;;;;;;;;;;;;;;;;5078780;28;19929;-83
2021/01/25 16:30:26;;;;;;;;;;;;;;;;;;5071512;28;19924;-82
2021/01/25 16:32:53;;;;;;;;;;;;;;;;;;5068907;28;20439;-83
2021/01/25 16:35:19;;;;;;;;;;;;;;;;;;5072066;28;37497;-82
2021/01/25 16:37:46;;;;;;;;;;;;;;;;;;5079568;28;19942;-82
2021/01/25 16:40:12;;;;;;;;;;;;;;;;;;5065654;28;20770;-82
2021/01/25 16:42:38;;;;;;;;;;;;;;;;;;5071431;28;19924;-84
2021/01/25 16:45:05;;;;;;;;;;;;;;;;;;5076657;28;19920;-85
2021/01/25 16:47:31;;;;;;;;;;;;;;;;;;5076585;28;19970;-85
2021/01/25 16:49:58;;;;;;;;;;;;;;;;;;5075958;28;26053;-84
2021/01/25 16:52:24;;;;;;;;;;;;;;;;;;5061853;28;19926;-85
2021/01/25 16:54:51;;;;;;;;;;;;;;;;;;5071561;28;19928;-88
2021/01/25 16:57:17;;;;;;;;;;;;;;;;;;5066657;28;20385;-85
2021/01/25 16:59:43;;;;;;;;;;;;;;;;;;5077374;28;19924;-84
2021/01/25 17:02:10;;;;;;;;;;;;;;;;;;5065989;28;19924;-84
2021/01/25 17:04:36;;;;;;;;;;;;;;;;;;5079171;28;19916;-81
2021/01/25 17:07:02;;;;;;;;;;;;;;;;;;5083791;28;19925;-82
2021/01/25 17:09:29;;;;;;;;;;;;;;;;;;5082839;28;19920;-83
2021/01/25 17:11:55;;;;;;;;;;;;;;;;;;5071788;28;19939;-82
2021/01/25 17:14:22;;;;;;;;;;;;;;;;;;5081528;28;19924;-82
2021/01/25 17:16:48;;;;;;;;;;;;;;;;;;5079514;28;19935;-82
2021/01/25 17:19:16;;;;;;;;;;;;;;;;;;5085143;28;19970;-82
2021/01/25 17:21:42;;;;;;;;;;;;;;;;;;5080956;28;20368;-82
2021/01/25 17:24:09;;;;;;;;;;;;;;;;;;5076159;28;19939;-83
2021/01/25 17:26:35;;;;;;;;;;;;;;;;;;5078265;28;19932;-82
2021/01/25 17:29:02;;;;;;;;;;;;;;;;;;5071110;28;20385;-82
2021/01/25 17:31:28;;;;;;;;;;;;;;;;;;5077111;28;19929;-81
2021/01/25 17:33:54;;;;;;;;;;;;;;;;;;5066813;28;20427;-81
2021/01/25 17:36:21;;;;;;;;;;;;;;;;;;5075746;28;19925;-81
2021/01/25 17:38:47;;;;;;;;;;;;;;;;;;5077827;28;19931;-82
2021/01/25 17:41:14;;;;;;;;;;;;;;;;;;5075770;28;19986;-82
2021/01/25 17:43:40;;;;;;;;;;;;;;;;;;5069464;28;19924;-81
2021/01/25 17:46:07;;;;;;;;;;;;;;;;;;5073366;28;19925;-81
2021/01/25 17:48:33;;;;;;;;;;;;;;;;;;5072203;28;19970;-81